Archival Weather

Václav Havel Intl Apt

Prague, Czechia (LKPR)

Report from: Monday, May 29, 2023 3:30 AM CEST
Current time: Tuesday, July 16, 2024 5:40 PM CEST

Current weather – Weather history – Daily summaries
Weather forecast

Temperature10.0°C (50.0°F)
Dew point4.0°C (39.2°F)
Winds 2 kts (1 m/s, 2.3 mph) Vrb
Winds variableWinds variable
Clouds Sky clear
Altimeter30.09 in.Hg (1019 mB)
Relative humidity66 %
Density altitude-672 ft. (-205 m)
Remarks Ceiling and visibility OK
No significant changes expected in the next two hours
Flight conditions Visual Meteorological Conditions
Raw dataLKPR 290130Z VRB02KT CAVOK 10/04 Q1019 NOSIG
An error has occurred. This application may no longer respond until reloaded. Reload 🗙